sensor_id;sensor_type;location;lat;lon;timestamp;pressure;altitude;pressure_sealevel;temperature;humidity
51926;BME280;37952;51.938;15.480;2022-08-30T00:02:55;100254.50;;;17.34;70.20
51926;BME280;37952;51.938;15.480;2022-08-30T00:05:59;100255.78;;;17.36;70.32
51926;BME280;37952;51.938;15.480;2022-08-30T00:09:02;100250.67;;;17.35;70.24
51926;BME280;37952;51.938;15.480;2022-08-30T00:12:06;100252.47;;;17.37;70.15
51926;BME280;37952;51.938;15.480;2022-08-30T00:15:11;100254.27;;;17.43;70.15
51926;BME280;37952;51.938;15.480;2022-08-30T00:18:16;100246.21;;;17.46;70.16
51926;BME280;37952;51.938;15.480;2022-08-30T00:21:20;100243.95;;;17.52;70.15
51926;BME280;37952;51.938;15.480;2022-08-30T00:24:23;100247.48;;;17.48;70.14
51926;BME280;37952;51.938;15.480;2022-08-30T00:27:27;100244.81;;;17.43;70.05
51926;BME280;37952;51.938;15.480;2022-08-30T00:30:30;100239.45;;;17.44;70.25
51926;BME280;37952;51.938;15.480;2022-08-30T00:33:33;100238.58;;;17.41;70.26
51926;BME280;37952;51.938;15.480;2022-08-30T00:36:36;100239.77;;;17.39;70.37
51926;BME280;37952;51.938;15.480;2022-08-30T00:39:40;100238.46;;;17.47;70.39
51926;BME280;37952;51.938;15.480;2022-08-30T00:42:43;100242.70;;;17.48;70.21
51926;BME280;37952;51.938;15.480;2022-08-30T00:45:52;100242.20;;;17.43;70.14
51926;BME280;37952;51.938;15.480;2022-08-30T00:48:55;100241.19;;;17.40;70.45
51926;BME280;37952;51.938;15.480;2022-08-30T00:52:00;100235.73;;;17.37;70.66
51926;BME280;37952;51.938;15.480;2022-08-30T00:55:07;100231.44;;;17.35;70.60
51926;BME280;37952;51.938;15.480;2022-08-30T00:58:14;100230.83;;;17.29;70.91
51926;BME280;37952;51.938;15.480;2022-08-30T01:01:23;100223.21;;;17.20;71.14
51926;BME280;37952;51.938;15.480;2022-08-30T01:04:27;100224.15;;;17.17;71.11
51926;BME280;37952;51.938;15.480;2022-08-30T01:07:31;100225.80;;;17.18;71.22
51926;BME280;37952;51.938;15.480;2022-08-30T01:10:36;100225.83;;;17.25;71.25
51926;BME280;37952;51.938;15.480;2022-08-30T01:13:40;100229.20;;;17.27;71.15
51926;BME280;37952;51.938;15.480;2022-08-30T01:16:46;100229.61;;;17.22;71.23
51926;BME280;37952;51.938;15.480;2022-08-30T01:19:55;100227.15;;;17.19;71.73
51926;BME280;37952;51.938;15.480;2022-08-30T01:23:09;100221.73;;;17.20;71.63
51926;BME280;37952;51.938;15.480;2022-08-30T01:26:15;100219.42;;;17.22;71.50
51926;BME280;37952;51.938;15.480;2022-08-30T01:29:24;100215.39;;;17.19;71.47
51926;BME280;37952;51.938;15.480;2022-08-30T01:32:28;100213.98;;;17.19;71.47
51926;BME280;37952;51.938;15.480;2022-08-30T01:38:55;100215.55;;;17.15;71.70
51926;BME280;37952;51.938;15.480;2022-08-30T01:41:58;100218.02;;;17.16;71.70
51926;BME280;37952;51.938;15.480;2022-08-30T01:45:04;100224.58;;;17.18;71.66
51926;BME280;37952;51.938;15.480;2022-08-30T01:48:08;100223.91;;;17.20;71.62
51926;BME280;37952;51.938;15.480;2022-08-30T01:51:15;100222.11;;;17.22;71.72
51926;BME280;37952;51.938;15.480;2022-08-30T01:54:18;100226.55;;;17.23;71.83
51926;BME280;37952;51.938;15.480;2022-08-30T01:57:24;100229.63;;;17.19;72.00
51926;BME280;37952;51.938;15.480;2022-08-30T02:00:28;100238.50;;;17.13;72.15
51926;BME280;37952;51.938;15.480;2022-08-30T02:03:33;100238.99;;;17.07;72.33
51926;BME280;37952;51.938;15.480;2022-08-30T02:06:38;100236.48;;;17.02;72.47
51926;BME280;37952;51.938;15.480;2022-08-30T02:09:44;100232.42;;;17.04;72.77
51926;BME280;37952;51.938;15.480;2022-08-30T02:12:47;100232.70;;;17.01;72.76
51926;BME280;37952;51.938;15.480;2022-08-30T02:15:50;100230.48;;;16.97;72.92
51926;BME280;37952;51.938;15.480;2022-08-30T02:18:54;100232.77;;;16.95;72.97
51926;BME280;37952;51.938;15.480;2022-08-30T02:21:59;100232.95;;;16.93;73.01
51926;BME280;37952;51.938;15.480;2022-08-30T02:25:05;100230.34;;;16.94;72.97
51926;BME280;37952;51.938;15.480;2022-08-30T02:28:13;100227.67;;;16.97;72.91
51926;BME280;37952;51.938;15.480;2022-08-30T02:31:21;100230.48;;;16.99;72.84
51926;BME280;37952;51.938;15.480;2022-08-30T02:34:24;100233.63;;;16.98;72.77
51926;BME280;37952;51.938;15.480;2022-08-30T02:37:27;100230.45;;;16.93;73.10
51926;BME280;37952;51.938;15.480;2022-08-30T02:40:31;100231.77;;;16.88;73.72
51926;BME280;37952;51.938;15.480;2022-08-30T02:43:34;100231.46;;;16.82;73.57
51926;BME280;37952;51.938;15.480;2022-08-30T02:46:38;100237.14;;;16.80;73.54
51926;BME280;37952;51.938;15.480;2022-08-30T02:49:41;100240.40;;;16.75;73.82
51926;BME280;37952;51.938;15.480;2022-08-30T02:52:44;100244.17;;;16.68;74.30
51926;BME280;37952;51.938;15.480;2022-08-30T02:55:50;100245.15;;;16.62;74.42
51926;BME280;37952;51.938;15.480;2022-08-30T02:58:53;100246.76;;;16.60;74.48
51926;BME280;37952;51.938;15.480;2022-08-30T03:01:56;100247.71;;;16.57;74.74
51926;BME280;37952;51.938;15.480;2022-08-30T03:05:01;100244.09;;;16.53;75.03
51926;BME280;37952;51.938;15.480;2022-08-30T03:08:06;100246.67;;;16.52;75.07
51926;BME280;37952;51.938;15.480;2022-08-30T03:11:10;100250.25;;;16.51;74.88
51926;BME280;37952;51.938;15.480;2022-08-30T03:14:15;100255.14;;;16.55;74.63
51926;BME280;37952;51.938;15.480;2022-08-30T03:17:18;100261.23;;;16.59;74.61
51926;BME280;37952;51.938;15.480;2022-08-30T03:20:22;100262.60;;;16.60;75.01
51926;BME280;37952;51.938;15.480;2022-08-30T03:23:25;100260.55;;;16.63;74.85
51926;BME280;37952;51.938;15.480;2022-08-30T03:26:29;100261.61;;;16.68;74.92
51926;BME280;37952;51.938;15.480;2022-08-30T03:29:36;100262.48;;;16.73;74.73
51926;BME280;37952;51.938;15.480;2022-08-30T03:32:41;100264.48;;;16.75;74.61
51926;BME280;37952;51.938;15.480;2022-08-30T03:35:44;100266.15;;;16.74;74.63
51926;BME280;37952;51.938;15.480;2022-08-30T03:38:48;100270.91;;;16.77;74.69
51926;BME280;37952;51.938;15.480;2022-08-30T03:41:53;100269.98;;;16.81;74.84
51926;BME280;37952;51.938;15.480;2022-08-30T03:44:56;100274.60;;;16.87;74.76
51926;BME280;37952;51.938;15.480;2022-08-30T03:48:00;100273.59;;;16.88;74.76
51926;BME280;37952;51.938;15.480;2022-08-30T03:51:07;100272.77;;;16.87;74.73
51926;BME280;37952;51.938;15.480;2022-08-30T03:54:10;100274.48;;;16.86;74.99
51926;BME280;37952;51.938;15.480;2022-08-30T03:57:13;100273.39;;;16.90;74.94
51926;BME280;37952;51.938;15.480;2022-08-30T04:00:26;100278.64;;;16.94;74.78
51926;BME280;37952;51.938;15.480;2022-08-30T04:03:29;100281.02;;;16.98;74.75
51926;BME280;37952;51.938;15.480;2022-08-30T04:06:32;100281.23;;;17.02;74.72
51926;BME280;37952;51.938;15.480;2022-08-30T04:09:35;100277.88;;;17.06;74.72
51926;BME280;37952;51.938;15.480;2022-08-30T04:12:39;100278.30;;;17.07;74.61
51926;BME280;37952;51.938;15.480;2022-08-30T04:15:45;100279.86;;;17.08;74.56
51926;BME280;37952;51.938;15.480;2022-08-30T04:18:48;100290.30;;;17.09;74.66
51926;BME280;37952;51.938;15.480;2022-08-30T04:21:52;100288.77;;;17.11;74.64
51926;BME280;37952;51.938;15.480;2022-08-30T04:24:56;100288.56;;;17.11;74.84
51926;BME280;37952;51.938;15.480;2022-08-30T04:28:00;100290.17;;;17.08;74.70
51926;BME280;37952;51.938;15.480;2022-08-30T04:31:09;100289.16;;;17.07;74.73
51926;BME280;37952;51.938;15.480;2022-08-30T04:34:14;100292.81;;;17.09;74.78
51926;BME280;37952;51.938;15.480;2022-08-30T04:37:18;100297.82;;;17.11;74.79
51926;BME280;37952;51.938;15.480;2022-08-30T04:40:22;100300.36;;;17.13;74.80
51926;BME280;37952;51.938;15.480;2022-08-30T04:43:25;100303.98;;;17.12;75.04
51926;BME280;37952;51.938;15.480;2022-08-30T04:46:29;100304.92;;;17.06;75.13
51926;BME280;37952;51.938;15.480;2022-08-30T04:49:32;100306.85;;;17.10;75.15
51926;BME280;37952;51.938;15.480;2022-08-30T04:52:35;100308.08;;;17.12;75.04
51926;BME280;37952;51.938;15.480;2022-08-30T04:55:40;100301.89;;;17.13;75.10
51926;BME280;37952;51.938;15.480;2022-08-30T04:58:45;100305.78;;;17.09;75.40
51926;BME280;37952;51.938;15.480;2022-08-30T05:01:48;100305.73;;;17.05;75.29
51926;BME280;37952;51.938;15.480;2022-08-30T05:04:51;100307.20;;;17.07;75.19
51926;BME280;37952;51.938;15.480;2022-08-30T05:08:20;100310.94;;;17.10;75.27
51926;BME280;37952;51.938;15.480;2022-08-30T05:11:27;100311.98;;;17.14;75.15
51926;BME280;37952;51.938;15.480;2022-08-30T05:14:30;100306.23;;;17.17;75.20
51926;BME280;37952;51.938;15.480;2022-08-30T05:17:36;100309.11;;;17.17;75.07
51926;BME280;37952;51.938;15.480;2022-08-30T05:20:39;100310.64;;;17.18;75.03
51926;BME280;37952;51.938;15.480;2022-08-30T05:23:43;100312.79;;;17.18;75.10
51926;BME280;37952;51.938;15.480;2022-08-30T05:26:46;100316.03;;;17.19;75.05
51926;BME280;37952;51.938;15.480;2022-08-30T05:29:54;100318.30;;;17.13;74.90
51926;BME280;37952;51.938;15.480;2022-08-30T05:32:58;100316.20;;;17.11;74.97
51926;BME280;37952;51.938;15.480;2022-08-30T05:36:05;100321.73;;;17.15;75.01
51926;BME280;37952;51.938;15.480;2022-08-30T05:39:09;100325.85;;;17.19;75.10
51926;BME280;37952;51.938;15.480;2022-08-30T05:42:14;100322.70;;;17.19;74.90
51926;BME280;37952;51.938;15.480;2022-08-30T05:45:18;100320.70;;;17.05;74.93
51926;BME280;37952;51.938;15.480;2022-08-30T05:48:22;100323.17;;;17.03;74.95
51926;BME280;37952;51.938;15.480;2022-08-30T05:51:26;100327.27;;;16.94;74.99
51926;BME280;37952;51.938;15.480;2022-08-30T05:54:30;100331.25;;;16.76;75.26
51926;BME280;37952;51.938;15.480;2022-08-30T05:57:35;100332.11;;;16.73;75.31
51926;BME280;37952;51.938;15.480;2022-08-30T06:00:39;100335.66;;;16.75;75.24
51926;BME280;37952;51.938;15.480;2022-08-30T06:03:42;100331.64;;;16.76;75.36
51926;BME280;37952;51.938;15.480;2022-08-30T06:06:45;100330.27;;;16.85;75.44
51926;BME280;37952;51.938;15.480;2022-08-30T06:09:48;100329.27;;;16.93;75.30
51926;BME280;37952;51.938;15.480;2022-08-30T06:12:54;100334.91;;;16.96;75.18
51926;BME280;37952;51.938;15.480;2022-08-30T06:15:57;100337.16;;;16.95;75.23
51926;BME280;37952;51.938;15.480;2022-08-30T06:19:00;100333.55;;;16.91;75.27
51926;BME280;37952;51.938;15.480;2022-08-30T06:22:04;100331.34;;;16.89;75.23
51926;BME280;37952;51.938;15.480;2022-08-30T06:25:08;100331.33;;;16.91;75.21
51926;BME280;37952;51.938;15.480;2022-08-30T06:28:12;100326.22;;;16.93;75.21
51926;BME280;37952;51.938;15.480;2022-08-30T06:31:17;100328.71;;;16.98;75.25
51926;BME280;37952;51.938;15.480;2022-08-30T06:34:20;100332.13;;;17.05;75.20
51926;BME280;37952;51.938;15.480;2022-08-30T06:37:24;100334.27;;;17.09;75.07
51926;BME280;37952;51.938;15.480;2022-08-30T06:40:32;100333.99;;;17.06;75.00
51926;BME280;37952;51.938;15.480;2022-08-30T06:43:35;100333.61;;;16.99;75.12
51926;BME280;37952;51.938;15.480;2022-08-30T06:46:39;100329.00;;;17.01;75.23
51926;BME280;37952;51.938;15.480;2022-08-30T06:49:42;100326.70;;;16.99;75.10
51926;BME280;37952;51.938;15.480;2022-08-30T06:52:45;100325.65;;;17.05;75.22
51926;BME280;37952;51.938;15.480;2022-08-30T06:56:02;100330.64;;;17.15;75.15
51926;BME280;37952;51.938;15.480;2022-08-30T06:59:06;100336.67;;;17.27;75.13
51926;BME280;37952;51.938;15.480;2022-08-30T07:02:09;100337.27;;;17.41;74.92
51926;BME280;37952;51.938;15.480;2022-08-30T07:05:13;100339.11;;;17.52;74.81
51926;BME280;37952;51.938;15.480;2022-08-30T07:08:21;100348.83;;;17.58;74.71
51926;BME280;37952;51.938;15.480;2022-08-30T07:11:33;100352.92;;;17.60;74.63
51926;BME280;37952;51.938;15.480;2022-08-30T07:14:37;100354.45;;;17.49;74.45
51926;BME280;37952;51.938;15.480;2022-08-30T07:17:41;100355.54;;;17.45;74.58
51926;BME280;37952;51.938;15.480;2022-08-30T07:21:12;100352.76;;;17.51;74.50
51926;BME280;37952;51.938;15.480;2022-08-30T07:24:17;100357.98;;;17.61;74.55
51926;BME280;37952;51.938;15.480;2022-08-30T07:27:20;100359.51;;;17.67;74.51
51926;BME280;37952;51.938;15.480;2022-08-30T07:30:23;100364.36;;;17.77;74.36
51926;BME280;37952;51.938;15.480;2022-08-30T07:33:27;100368.41;;;17.82;74.06
51926;BME280;37952;51.938;15.480;2022-08-30T07:36:30;100370.34;;;17.78;74.00
51926;BME280;37952;51.938;15.480;2022-08-30T07:39:33;100371.29;;;17.78;74.09
51926;BME280;37952;51.938;15.480;2022-08-30T07:42:46;100378.70;;;17.83;74.13
51926;BME280;37952;51.938;15.480;2022-08-30T07:45:49;100381.97;;;17.89;73.97
51926;BME280;37952;51.938;15.480;2022-08-30T07:48:53;100385.25;;;17.88;73.72
51926;BME280;37952;51.938;15.480;2022-08-30T07:51:56;100383.59;;;17.80;73.91
51926;BME280;37952;51.938;15.480;2022-08-30T07:55:00;100385.59;;;17.77;73.98
51926;BME280;37952;51.938;15.480;2022-08-30T07:58:03;100387.16;;;17.80;74.00
51926;BME280;37952;51.938;15.480;2022-08-30T08:01:08;100390.50;;;17.85;73.96
51926;BME280;37952;51.938;15.480;2022-08-30T08:04:12;100391.52;;;17.92;73.92
51926;BME280;37952;51.938;15.480;2022-08-30T08:07:15;100394.42;;;18.02;73.90
51926;BME280;37952;51.938;15.480;2022-08-30T08:10:18;100396.81;;;18.15;73.78
51926;BME280;37952;51.938;15.480;2022-08-30T08:13:21;100400.23;;;18.26;73.58
51926;BME280;37952;51.938;15.480;2022-08-30T08:16:32;100404.69;;;18.34;73.34
51926;BME280;37952;51.938;15.480;2022-08-30T08:19:35;100405.03;;;18.41;73.21
51926;BME280;37952;51.938;15.480;2022-08-30T08:22:44;100411.98;;;18.46;73.10
51926;BME280;37952;51.938;15.480;2022-08-30T08:25:47;100411.29;;;18.49;73.12
51926;BME280;37952;51.938;15.480;2022-08-30T08:28:53;100412.11;;;18.57;73.07
51926;BME280;37952;51.938;15.480;2022-08-30T08:31:56;100418.91;;;18.68;72.86
51926;BME280;37952;51.938;15.480;2022-08-30T08:34:59;100420.88;;;18.74;72.64
51926;BME280;37952;51.938;15.480;2022-08-30T08:38:03;100425.73;;;18.80;72.58
51926;BME280;37952;51.938;15.480;2022-08-30T08:41:28;100426.71;;;18.92;72.57
51926;BME280;37952;51.938;15.480;2022-08-30T08:48:10;100426.67;;;19.05;72.11
51926;BME280;37952;51.938;15.480;2022-08-30T08:51:17;100428.11;;;19.00;71.71
51926;BME280;37952;51.938;15.480;2022-08-30T08:54:49;100425.17;;;18.89;71.88
51926;BME280;37952;51.938;15.480;2022-08-30T08:57:56;100425.33;;;18.87;71.92
51926;BME280;37952;51.938;15.480;2022-08-30T09:00:59;100421.94;;;18.82;71.84
51926;BME280;37952;51.938;15.480;2022-08-30T09:04:09;100417.40;;;18.79;71.76
51926;BME280;37952;51.938;15.480;2022-08-30T09:07:20;100413.11;;;18.77;71.74
51926;BME280;37952;51.938;15.480;2022-08-30T09:10:24;100415.30;;;18.76;71.72
51926;BME280;37952;51.938;15.480;2022-08-30T09:13:49;100409.67;;;18.77;71.79
51926;BME280;37952;51.938;15.480;2022-08-30T09:16:58;100405.05;;;18.82;71.74
51926;BME280;37952;51.938;15.480;2022-08-30T09:20:04;100407.98;;;18.89;71.55
51926;BME280;37952;51.938;15.480;2022-08-30T09:26:31;100408.13;;;18.96;71.03
51926;BME280;37952;51.938;15.480;2022-08-30T09:29:34;100414.02;;;18.96;70.76
51926;BME280;37952;51.938;15.480;2022-08-30T09:32:40;100414.67;;;18.97;70.28
51926;BME280;37952;51.938;15.480;2022-08-30T09:35:46;100407.58;;;18.92;69.92
51926;BME280;37952;51.938;15.480;2022-08-30T09:39:02;100406.61;;;18.88;70.36
51926;BME280;37952;51.938;15.480;2022-08-30T09:42:18;100401.20;;;18.91;70.38
51926;BME280;37952;51.938;15.480;2022-08-30T09:45:33;100401.80;;;19.01;70.66
51926;BME280;37952;51.938;15.480;2022-08-30T09:48:40;100402.61;;;19.23;70.54
51926;BME280;37952;51.938;15.480;2022-08-30T10:09:18;100400.64;;;19.48;68.91
51926;BME280;37952;51.938;15.480;2022-08-30T10:12:46;100401.92;;;19.52;68.91
51926;BME280;37952;51.938;15.480;2022-08-30T10:23:14;100390.40;;;19.87;68.53
51926;BME280;37952;51.938;15.480;2022-08-30T10:29:43;100388.29;;;19.99;67.68
51926;BME280;37952;51.938;15.480;2022-08-30T10:33:09;100391.64;;;19.91;67.09
51926;BME280;37952;51.938;15.480;2022-08-30T10:36:25;100388.95;;;19.83;67.25
51926;BME280;37952;51.938;15.480;2022-08-30T10:39:35;100388.65;;;19.73;66.57
51926;BME280;37952;51.938;15.480;2022-08-30T10:42:40;100386.75;;;19.70;66.33
51926;BME280;37952;51.938;15.480;2022-08-30T10:45:46;100382.73;;;19.75;67.05
51926;BME280;37952;51.938;15.480;2022-08-30T10:48:54;100381.30;;;19.83;66.20
51926;BME280;37952;51.938;15.480;2022-08-30T10:55:20;100377.98;;;20.10;66.33
51926;BME280;37952;51.938;15.480;2022-08-30T10:58:27;100379.44;;;20.24;66.15
51926;BME280;37952;51.938;15.480;2022-08-30T11:08:18;100372.91;;;20.45;65.46
51926;BME280;37952;51.938;15.480;2022-08-30T11:14:44;100380.23;;;20.49;65.21
51926;BME280;37952;51.938;15.480;2022-08-30T11:21:26;100372.62;;;20.52;64.88
51926;BME280;37952;51.938;15.480;2022-08-30T11:28:00;100356.38;;;20.57;63.15
51926;BME280;37952;51.938;15.480;2022-08-30T11:37:47;100355.42;;;20.67;63.76
51926;BME280;37952;51.938;15.480;2022-08-30T11:41:13;100352.21;;;20.73;62.58
51926;BME280;37952;51.938;15.480;2022-08-30T11:44:31;100351.83;;;20.79;62.00
51926;BME280;37952;51.938;15.480;2022-08-30T11:47:45;100353.75;;;20.91;62.63
51926;BME280;37952;51.938;15.480;2022-08-30T11:51:18;100347.98;;;20.97;60.81
51926;BME280;37952;51.938;15.480;2022-08-30T12:01:30;100339.64;;;21.32;62.07
51926;BME280;37952;51.938;15.480;2022-08-30T12:04:52;100339.02;;;21.48;62.12
51926;BME280;37952;51.938;15.480;2022-08-30T12:08:00;100338.23;;;21.63;61.75
51926;BME280;37952;51.938;15.480;2022-08-30T12:14:49;100334.05;;;21.88;59.80
51926;BME280;37952;51.938;15.480;2022-08-30T12:17:59;100326.63;;;22.04;60.02
51926;BME280;37952;51.938;15.480;2022-08-30T12:21:23;100322.00;;;22.23;60.16
51926;BME280;37952;51.938;15.480;2022-08-30T12:24:36;100320.80;;;22.44;59.89
51926;BME280;37952;51.938;15.480;2022-08-30T12:27:41;100320.75;;;22.66;59.04
51926;BME280;37952;51.938;15.480;2022-08-30T12:30:45;100324.13;;;22.70;55.90
51926;BME280;37952;51.938;15.480;2022-08-30T12:33:56;100318.41;;;22.48;55.73
51926;BME280;37952;51.938;15.480;2022-08-30T12:37:05;100317.84;;;22.39;58.07
51926;BME280;37952;51.938;15.480;2022-08-30T12:40:14;100317.98;;;22.56;58.20
51926;BME280;37952;51.938;15.480;2022-08-30T12:43:29;100314.45;;;22.75;57.93
51926;BME280;37952;51.938;15.480;2022-08-30T12:46:45;100314.35;;;22.88;57.38
51926;BME280;37952;51.938;15.480;2022-08-30T12:49:51;100309.04;;;22.90;57.52
51926;BME280;37952;51.938;15.480;2022-08-30T12:53:04;100303.11;;;22.94;56.69
51926;BME280;37952;51.938;15.480;2022-08-30T12:56:16;100298.47;;;22.85;54.36
51926;BME280;37952;51.938;15.480;2022-08-30T12:59:49;100298.36;;;22.71;55.91
51926;BME280;37952;51.938;15.480;2022-08-30T13:03:36;100296.50;;;22.51;56.29
51926;BME280;37952;51.938;15.480;2022-08-30T13:06:49;100297.65;;;22.56;56.40
51926;BME280;37952;51.938;15.480;2022-08-30T13:13:06;100292.55;;;22.99;55.08
51926;BME280;37952;51.938;15.480;2022-08-30T13:16:23;100292.36;;;23.23;55.41
51926;BME280;37952;51.938;15.480;2022-08-30T13:19:40;100290.16;;;23.42;54.34
51926;BME280;37952;51.938;15.480;2022-08-30T13:26:10;100277.05;;;23.49;49.94
51926;BME280;37952;51.938;15.480;2022-08-30T13:29:16;100285.05;;;23.82;52.70
51926;BME280;37952;51.938;15.480;2022-08-30T13:32:21;100282.28;;;24.03;52.77
51926;BME280;37952;51.938;15.480;2022-08-30T13:35:24;100279.83;;;23.94;52.75
51926;BME280;37952;51.938;15.480;2022-08-30T13:38:27;100278.94;;;23.75;52.65
51926;BME280;37952;51.938;15.480;2022-08-30T13:41:30;100275.95;;;23.56;52.74
51926;BME280;37952;51.938;15.480;2022-08-30T13:44:36;100276.83;;;23.32;51.61
51926;BME280;37952;51.938;15.480;2022-08-30T13:47:43;100277.23;;;23.03;52.07
51926;BME280;37952;51.938;15.480;2022-08-30T13:50:48;100274.55;;;22.69;52.48
51926;BME280;37952;51.938;15.480;2022-08-30T13:53:51;100270.70;;;22.45;53.43
51926;BME280;37952;51.938;15.480;2022-08-30T13:56:58;100269.98;;;22.37;54.28
51926;BME280;37952;51.938;15.480;2022-08-30T14:00:06;100268.95;;;22.32;54.64
51926;BME280;37952;51.938;15.480;2022-08-30T14:03:14;100267.45;;;22.26;54.26
51926;BME280;37952;51.938;15.480;2022-08-30T14:06:18;100268.91;;;22.19;54.92
51926;BME280;37952;51.938;15.480;2022-08-30T14:09:35;100269.55;;;22.12;54.53
51926;BME280;37952;51.938;15.480;2022-08-30T14:12:39;100270.81;;;22.07;55.07
51926;BME280;37952;51.938;15.480;2022-08-30T14:16:05;100273.31;;;22.12;55.42
51926;BME280;37952;51.938;15.480;2022-08-30T14:19:28;100268.27;;;22.37;55.61
51926;BME280;37952;51.938;15.480;2022-08-30T14:22:31;100269.63;;;22.52;55.22
51926;BME280;37952;51.938;15.480;2022-08-30T14:25:34;100272.89;;;22.52;53.29
51926;BME280;37952;51.938;15.480;2022-08-30T14:28:38;100270.19;;;22.51;53.64
51926;BME280;37952;51.938;15.480;2022-08-30T14:31:45;100274.21;;;22.62;54.69
51926;BME280;37952;51.938;15.480;2022-08-30T14:34:57;100269.71;;;22.73;53.64
51926;BME280;37952;51.938;15.480;2022-08-30T14:38:03;100268.63;;;22.76;54.35
51926;BME280;37952;51.938;15.480;2022-08-30T14:41:07;100269.13;;;22.82;54.85
51926;BME280;37952;51.938;15.480;2022-08-30T14:44:13;100265.71;;;22.97;53.98
51926;BME280;37952;51.938;15.480;2022-08-30T14:47:16;100263.42;;;23.16;52.78
51926;BME280;37952;51.938;15.480;2022-08-30T14:50:19;100264.98;;;23.25;53.64
51926;BME280;37952;51.938;15.480;2022-08-30T14:53:24;100267.45;;;23.25;53.10
51926;BME280;37952;51.938;15.480;2022-08-30T14:56:28;100266.92;;;23.15;52.30
51926;BME280;37952;51.938;15.480;2022-08-30T14:59:31;100264.40;;;23.13;53.35
51926;BME280;37952;51.938;15.480;2022-08-30T15:02:36;100266.27;;;23.08;53.55
51926;BME280;37952;51.938;15.480;2022-08-30T15:05:39;100269.16;;;22.99;53.82
51926;BME280;37952;51.938;15.480;2022-08-30T15:08:43;100267.10;;;22.88;53.77
51926;BME280;37952;51.938;15.480;2022-08-30T15:11:51;100265.43;;;22.74;53.60
51926;BME280;37952;51.938;15.480;2022-08-30T15:14:56;100266.33;;;22.60;53.68
51926;BME280;37952;51.938;15.480;2022-08-30T15:17:59;100273.25;;;22.50;54.11
51926;BME280;37952;51.938;15.480;2022-08-30T15:21:03;100266.88;;;22.44;54.07
51926;BME280;37952;51.938;15.480;2022-08-30T15:24:09;100267.45;;;22.38;53.54
51926;BME280;37952;51.938;15.480;2022-08-30T15:27:13;100269.31;;;22.36;53.99
51926;BME280;37952;51.938;15.480;2022-08-30T15:30:16;100271.89;;;22.37;54.39
51926;BME280;37952;51.938;15.480;2022-08-30T15:33:22;100271.60;;;22.38;53.93
51926;BME280;37952;51.938;15.480;2022-08-30T15:36:27;100270.61;;;22.37;54.48
51926;BME280;37952;51.938;15.480;2022-08-30T15:39:31;100264.55;;;22.40;54.60
51926;BME280;37952;51.938;15.480;2022-08-30T15:42:35;100268.53;;;22.44;54.61
51926;BME280;37952;51.938;15.480;2022-08-30T15:45:38;100270.99;;;22.44;54.54
51926;BME280;37952;51.938;15.480;2022-08-30T15:48:42;100267.71;;;22.46;54.73
51926;BME280;37952;51.938;15.480;2022-08-30T15:51:50;100271.64;;;22.64;54.89
51926;BME280;37952;51.938;15.480;2022-08-30T15:54:56;100267.64;;;22.86;54.95
51926;BME280;37952;51.938;15.480;2022-08-30T15:57:59;100267.69;;;23.00;54.41
51926;BME280;37952;51.938;15.480;2022-08-30T16:01:03;100265.45;;;22.98;53.73
51926;BME280;37952;51.938;15.480;2022-08-30T16:04:07;100262.31;;;22.85;53.34
51926;BME280;37952;51.938;15.480;2022-08-30T16:07:12;100262.70;;;22.75;53.36
51926;BME280;37952;51.938;15.480;2022-08-30T16:10:16;100260.90;;;22.62;54.88
51926;BME280;37952;51.938;15.480;2022-08-30T16:13:20;100256.95;;;22.39;55.81
51926;BME280;37952;51.938;15.480;2022-08-30T16:16:24;100256.92;;;22.18;56.48
51926;BME280;37952;51.938;15.480;2022-08-30T16:19:28;100259.17;;;21.99;57.33
51926;BME280;37952;51.938;15.480;2022-08-30T16:22:32;100262.22;;;21.78;57.79
51926;BME280;37952;51.938;15.480;2022-08-30T16:25:35;100261.73;;;21.62;57.90
51926;BME280;37952;51.938;15.480;2022-08-30T16:28:44;100263.33;;;21.50;58.50
51926;BME280;37952;51.938;15.480;2022-08-30T16:31:48;100262.42;;;21.37;58.97
51926;BME280;37952;51.938;15.480;2022-08-30T16:34:51;100262.50;;;21.25;59.15
51926;BME280;37952;51.938;15.480;2022-08-30T16:37:54;100261.67;;;21.13;59.54
51926;BME280;37952;51.938;15.480;2022-08-30T16:41:02;100266.77;;;21.03;59.91
51926;BME280;37952;51.938;15.480;2022-08-30T16:44:05;100266.07;;;20.91;60.29
51926;BME280;37952;51.938;15.480;2022-08-30T16:47:10;100265.82;;;20.83;60.01
51926;BME280;37952;51.938;15.480;2022-08-30T16:50:15;100262.52;;;20.80;59.70
51926;BME280;37952;51.938;15.480;2022-08-30T16:53:20;100263.65;;;20.75;60.07
51926;BME280;37952;51.938;15.480;2022-08-30T16:56:25;100260.08;;;20.69;60.23
51926;BME280;37952;51.938;15.480;2022-08-30T16:59:28;100259.23;;;20.62;60.20
51926;BME280;37952;51.938;15.480;2022-08-30T17:02:32;100261.51;;;20.54;60.54
51926;BME280;37952;51.938;15.480;2022-08-30T17:05:36;100258.77;;;20.47;60.67
51926;BME280;37952;51.938;15.480;2022-08-30T17:08:39;100258.63;;;20.37;61.36
51926;BME280;37952;51.938;15.480;2022-08-30T17:11:44;100258.97;;;20.26;61.66
51926;BME280;37952;51.938;15.480;2022-08-30T17:14:48;100262.06;;;20.22;61.72
51926;BME280;37952;51.938;15.480;2022-08-30T17:17:52;100262.16;;;20.17;62.06
51926;BME280;37952;51.938;15.480;2022-08-30T17:20:57;100260.14;;;20.10;61.99
51926;BME280;37952;51.938;15.480;2022-08-30T17:24:00;100263.60;;;20.05;62.36
51926;BME280;37952;51.938;15.480;2022-08-30T17:27:05;100262.20;;;20.00;62.74